sensor_id;sensor_type;location;lat;lon;timestamp;P1;durP1;ratioP1;P2;durP2;ratioP2
43457;SDS011;29046;54.184;18.680;2023-09-19T00:01:47;15.10;;;11.82;;
43457;SDS011;29046;54.184;18.680;2023-09-19T00:04:15;14.15;;;11.68;;
43457;SDS011;29046;54.184;18.680;2023-09-19T00:06:42;17.05;;;12.65;;
43457;SDS011;29046;54.184;18.680;2023-09-19T00:09:11;13.80;;;11.95;;
43457;SDS011;29046;54.184;18.680;2023-09-19T00:11:38;16.20;;;13.73;;
43457;SDS011;29046;54.184;18.680;2023-09-19T00:14:06;13.77;;;11.57;;
43457;SDS011;29046;54.184;18.680;2023-09-19T00:16:35;14.48;;;12.82;;
43457;SDS011;29046;54.184;18.680;2023-09-19T00:19:03;17.92;;;12.75;;
43457;SDS011;29046;54.184;18.680;2023-09-19T00:21:35;14.02;;;11.93;;
43457;SDS011;29046;54.184;18.680;2023-09-19T00:24:04;14.02;;;11.80;;
43457;SDS011;29046;54.184;18.680;2023-09-19T00:26:32;16.90;;;12.35;;
43457;SDS011;29046;54.184;18.680;2023-09-19T00:29:01;14.85;;;12.70;;
43457;SDS011;29046;54.184;18.680;2023-09-19T00:31:30;15.02;;;12.27;;
43457;SDS011;29046;54.184;18.680;2023-09-19T00:33:58;17.95;;;13.27;;
43457;SDS011;29046;54.184;18.680;2023-09-19T00:36:26;14.85;;;11.32;;
43457;SDS011;29046;54.184;18.680;2023-09-19T00:38:56;17.55;;;12.60;;
43457;SDS011;29046;54.184;18.680;2023-09-19T00:41:23;17.48;;;12.70;;
43457;SDS011;29046;54.184;18.680;2023-09-19T00:43:51;18.25;;;13.02;;
43457;SDS011;29046;54.184;18.680;2023-09-19T00:46:19;14.57;;;12.13;;
43457;SDS011;29046;54.184;18.680;2023-09-19T00:48:47;13.88;;;12.40;;
43457;SDS011;29046;54.184;18.680;2023-09-19T00:51:16;22.77;;;12.73;;
43457;SDS011;29046;54.184;18.680;2023-09-19T00:53:49;17.05;;;12.60;;
43457;SDS011;29046;54.184;18.680;2023-09-19T00:56:16;18.25;;;12.85;;
43457;SDS011;29046;54.184;18.680;2023-09-19T00:58:45;18.50;;;13.63;;
43457;SDS011;29046;54.184;18.680;2023-09-19T01:01:13;17.27;;;13.45;;
43457;SDS011;29046;54.184;18.680;2023-09-19T01:03:42;20.00;;;12.82;;
43457;SDS011;29046;54.184;18.680;2023-09-19T01:06:10;16.23;;;13.60;;
43457;SDS011;29046;54.184;18.680;2023-09-19T01:08:39;17.40;;;13.98;;
43457;SDS011;29046;54.184;18.680;2023-09-19T01:11:26;14.45;;;12.93;;
43457;SDS011;29046;54.184;18.680;2023-09-19T01:13:58;15.18;;;13.27;;
43457;SDS011;29046;54.184;18.680;2023-09-19T01:21:48;20.35;;;12.98;;
43457;SDS011;29046;54.184;18.680;2023-09-19T01:29:34;21.50;;;14.38;;
43457;SDS011;29046;54.184;18.680;2023-09-19T01:32:06;20.13;;;15.32;;
43457;SDS011;29046;54.184;18.680;2023-09-19T01:37:16;19.52;;;14.90;;
43457;SDS011;29046;54.184;18.680;2023-09-19T01:39:47;19.90;;;15.95;;
43457;SDS011;29046;54.184;18.680;2023-09-19T01:42:24;19.08;;;15.00;;
43457;SDS011;29046;54.184;18.680;2023-09-19T01:44:59;17.48;;;14.88;;
43457;SDS011;29046;54.184;18.680;2023-09-19T01:47:35;19.23;;;15.52;;
43457;SDS011;29046;54.184;18.680;2023-09-19T01:50:08;23.23;;;14.63;;
43457;SDS011;29046;54.184;18.680;2023-09-19T01:52:43;22.25;;;15.70;;
43457;SDS011;29046;54.184;18.680;2023-09-19T01:55:13;26.58;;;16.38;;
43457;SDS011;29046;54.184;18.680;2023-09-19T01:57:48;21.23;;;16.27;;
43457;SDS011;29046;54.184;18.680;2023-09-19T02:00:17;18.30;;;15.70;;
43457;SDS011;29046;54.184;18.680;2023-09-19T02:02:46;23.80;;;16.02;;
43457;SDS011;29046;54.184;18.680;2023-09-19T02:05:24;18.67;;;15.43;;
43457;SDS011;29046;54.184;18.680;2023-09-19T02:07:52;25.10;;;16.27;;
43457;SDS011;29046;54.184;18.680;2023-09-19T02:10:20;20.00;;;17.33;;
43457;SDS011;29046;54.184;18.680;2023-09-19T02:12:49;23.00;;;15.90;;
43457;SDS011;29046;54.184;18.680;2023-09-19T02:15:17;18.23;;;15.80;;
43457;SDS011;29046;54.184;18.680;2023-09-19T02:17:45;20.45;;;16.30;;
43457;SDS011;29046;54.184;18.680;2023-09-19T02:20:13;21.80;;;15.82;;
43457;SDS011;29046;54.184;18.680;2023-09-19T02:22:41;18.75;;;16.73;;
43457;SDS011;29046;54.184;18.680;2023-09-19T02:25:09;24.50;;;16.10;;
43457;SDS011;29046;54.184;18.680;2023-09-19T02:27:37;22.08;;;15.95;;
43457;SDS011;29046;54.184;18.680;2023-09-19T02:30:06;20.55;;;15.18;;
43457;SDS011;29046;54.184;18.680;2023-09-19T02:32:34;19.75;;;15.93;;
43457;SDS011;29046;54.184;18.680;2023-09-19T02:35:06;18.55;;;16.38;;
43457;SDS011;29046;54.184;18.680;2023-09-19T02:37:33;18.83;;;15.73;;
43457;SDS011;29046;54.184;18.680;2023-09-19T02:40:02;21.77;;;17.17;;
43457;SDS011;29046;54.184;18.680;2023-09-19T02:42:46;20.42;;;16.00;;
43457;SDS011;29046;54.184;18.680;2023-09-19T02:45:16;23.38;;;17.08;;
43457;SDS011;29046;54.184;18.680;2023-09-19T02:47:44;19.17;;;17.10;;
43457;SDS011;29046;54.184;18.680;2023-09-19T02:50:13;21.15;;;17.42;;
43457;SDS011;29046;54.184;18.680;2023-09-19T02:52:42;17.65;;;15.70;;
43457;SDS011;29046;54.184;18.680;2023-09-19T02:55:11;22.23;;;16.45;;
43457;SDS011;29046;54.184;18.680;2023-09-19T02:57:48;20.25;;;17.60;;
43457;SDS011;29046;54.184;18.680;2023-09-19T03:00:16;21.58;;;16.92;;
43457;SDS011;29046;54.184;18.680;2023-09-19T03:02:53;22.80;;;16.63;;
43457;SDS011;29046;54.184;18.680;2023-09-19T03:05:21;19.52;;;15.80;;
43457;SDS011;29046;54.184;18.680;2023-09-19T03:07:50;23.60;;;16.83;;
43457;SDS011;29046;54.184;18.680;2023-09-19T03:10:21;19.50;;;17.38;;
43457;SDS011;29046;54.184;18.680;2023-09-19T03:12:49;22.60;;;17.48;;
43457;SDS011;29046;54.184;18.680;2023-09-19T03:15:17;23.80;;;17.08;;
43457;SDS011;29046;54.184;18.680;2023-09-19T03:17:46;18.50;;;16.27;;
43457;SDS011;29046;54.184;18.680;2023-09-19T03:20:16;22.00;;;18.15;;
43457;SDS011;29046;54.184;18.680;2023-09-19T03:22:44;31.90;;;17.75;;
43457;SDS011;29046;54.184;18.680;2023-09-19T03:25:13;20.25;;;16.55;;
43457;SDS011;29046;54.184;18.680;2023-09-19T03:27:40;21.95;;;16.75;;
43457;SDS011;29046;54.184;18.680;2023-09-19T03:30:08;17.48;;;15.55;;
43457;SDS011;29046;54.184;18.680;2023-09-19T03:32:43;19.52;;;16.92;;
43457;SDS011;29046;54.184;18.680;2023-09-19T03:35:12;19.88;;;15.98;;
43457;SDS011;29046;54.184;18.680;2023-09-19T03:37:40;20.08;;;15.60;;
43457;SDS011;29046;54.184;18.680;2023-09-19T03:40:09;18.42;;;15.82;;
43457;SDS011;29046;54.184;18.680;2023-09-19T03:42:40;20.73;;;16.75;;
43457;SDS011;29046;54.184;18.680;2023-09-19T03:45:08;23.98;;;17.02;;
43457;SDS011;29046;54.184;18.680;2023-09-19T03:47:40;24.95;;;16.73;;
43457;SDS011;29046;54.184;18.680;2023-09-19T03:50:08;20.23;;;13.70;;
43457;SDS011;29046;54.184;18.680;2023-09-19T03:52:37;18.42;;;13.93;;
43457;SDS011;29046;54.184;18.680;2023-09-19T03:55:05;20.85;;;16.05;;
43457;SDS011;29046;54.184;18.680;2023-09-19T03:57:33;19.08;;;15.93;;
43457;SDS011;29046;54.184;18.680;2023-09-19T04:00:03;20.73;;;17.00;;
43457;SDS011;29046;54.184;18.680;2023-09-19T04:02:41;19.45;;;16.27;;
43457;SDS011;29046;54.184;18.680;2023-09-19T04:05:08;24.80;;;16.95;;
43457;SDS011;29046;54.184;18.680;2023-09-19T04:07:37;20.30;;;17.13;;
43457;SDS011;29046;54.184;18.680;2023-09-19T04:10:05;20.27;;;16.52;;
43457;SDS011;29046;54.184;18.680;2023-09-19T04:12:35;24.42;;;15.90;;
43457;SDS011;29046;54.184;18.680;2023-09-19T04:15:06;22.08;;;15.02;;
43457;SDS011;29046;54.184;18.680;2023-09-19T04:17:35;18.55;;;13.23;;
43457;SDS011;29046;54.184;18.680;2023-09-19T04:20:03;20.40;;;13.48;;
43457;SDS011;29046;54.184;18.680;2023-09-19T04:22:34;19.42;;;13.45;;
43457;SDS011;29046;54.184;18.680;2023-09-19T04:25:02;14.93;;;11.40;;
43457;SDS011;29046;54.184;18.680;2023-09-19T04:27:30;16.95;;;12.10;;
43457;SDS011;29046;54.184;18.680;2023-09-19T04:29:57;15.65;;;10.65;;
43457;SDS011;29046;54.184;18.680;2023-09-19T04:32:28;12.70;;;9.07;;
43457;SDS011;29046;54.184;18.680;2023-09-19T04:34:56;11.82;;;8.55;;
43457;SDS011;29046;54.184;18.680;2023-09-19T04:37:26;13.68;;;8.55;;
43457;SDS011;29046;54.184;18.680;2023-09-19T04:39:55;11.63;;;7.53;;
43457;SDS011;29046;54.184;18.680;2023-09-19T04:42:22;12.40;;;7.40;;
43457;SDS011;29046;54.184;18.680;2023-09-19T04:44:52;12.55;;;7.20;;
43457;SDS011;29046;54.184;18.680;2023-09-19T04:47:20;13.90;;;6.63;;
43457;SDS011;29046;54.184;18.680;2023-09-19T04:49:49;14.38;;;6.40;;
43457;SDS011;29046;54.184;18.680;2023-09-19T04:52:16;11.88;;;7.00;;
43457;SDS011;29046;54.184;18.680;2023-09-19T04:54:44;8.45;;;6.57;;
43457;SDS011;29046;54.184;18.680;2023-09-19T04:57:12;12.52;;;7.00;;
43457;SDS011;29046;54.184;18.680;2023-09-19T04:59:40;11.15;;;7.43;;
43457;SDS011;29046;54.184;18.680;2023-09-19T05:02:07;11.73;;;7.13;;
43457;SDS011;29046;54.184;18.680;2023-09-19T05:04:35;14.52;;;7.80;;
43457;SDS011;29046;54.184;18.680;2023-09-19T05:07:03;17.17;;;7.93;;
43457;SDS011;29046;54.184;18.680;2023-09-19T05:09:31;12.15;;;7.60;;
43457;SDS011;29046;54.184;18.680;2023-09-19T05:12:01;11.05;;;7.18;;
43457;SDS011;29046;54.184;18.680;2023-09-19T05:14:28;14.43;;;8.45;;
43457;SDS011;29046;54.184;18.680;2023-09-19T05:16:56;10.13;;;7.57;;
43457;SDS011;29046;54.184;18.680;2023-09-19T05:19:24;11.48;;;7.95;;
43457;SDS011;29046;54.184;18.680;2023-09-19T05:21:51;12.15;;;8.38;;
43457;SDS011;29046;54.184;18.680;2023-09-19T05:24:19;12.65;;;8.75;;
43457;SDS011;29046;54.184;18.680;2023-09-19T05:26:49;12.40;;;8.18;;
43457;SDS011;29046;54.184;18.680;2023-09-19T05:29:17;9.35;;;8.02;;
43457;SDS011;29046;54.184;18.680;2023-09-19T05:31:45;12.50;;;8.05;;
43457;SDS011;29046;54.184;18.680;2023-09-19T05:34:13;11.25;;;8.15;;
43457;SDS011;29046;54.184;18.680;2023-09-19T05:36:40;16.60;;;8.65;;
43457;SDS011;29046;54.184;18.680;2023-09-19T05:39:08;14.00;;;8.63;;
43457;SDS011;29046;54.184;18.680;2023-09-19T05:41:36;13.45;;;8.60;;
43457;SDS011;29046;54.184;18.680;2023-09-19T05:44:07;13.98;;;7.47;;
43457;SDS011;29046;54.184;18.680;2023-09-19T05:46:34;13.18;;;7.97;;
43457;SDS011;29046;54.184;18.680;2023-09-19T05:49:02;15.65;;;8.63;;
43457;SDS011;29046;54.184;18.680;2023-09-19T05:51:30;12.82;;;8.90;;
43457;SDS011;29046;54.184;18.680;2023-09-19T05:53:58;13.35;;;8.23;;
43457;SDS011;29046;54.184;18.680;2023-09-19T05:56:25;17.27;;;8.98;;
43457;SDS011;29046;54.184;18.680;2023-09-19T05:58:54;14.55;;;8.60;;
43457;SDS011;29046;54.184;18.680;2023-09-19T06:01:21;11.50;;;6.97;;
43457;SDS011;29046;54.184;18.680;2023-09-19T06:03:49;14.10;;;8.07;;
43457;SDS011;29046;54.184;18.680;2023-09-19T06:06:17;10.20;;;7.25;;
43457;SDS011;29046;54.184;18.680;2023-09-19T06:08:45;12.57;;;7.70;;
43457;SDS011;29046;54.184;18.680;2023-09-19T06:11:13;10.68;;;7.93;;
43457;SDS011;29046;54.184;18.680;2023-09-19T06:13:41;10.30;;;7.13;;
43457;SDS011;29046;54.184;18.680;2023-09-19T06:16:08;13.02;;;7.13;;
43457;SDS011;29046;54.184;18.680;2023-09-19T06:18:36;10.85;;;6.70;;
43457;SDS011;29046;54.184;18.680;2023-09-19T06:21:04;8.13;;;5.43;;
43457;SDS011;29046;54.184;18.680;2023-09-19T06:23:34;9.95;;;5.30;;
43457;SDS011;29046;54.184;18.680;2023-09-19T06:26:02;6.07;;;4.35;;
43457;SDS011;29046;54.184;18.680;2023-09-19T06:28:33;9.52;;;4.30;;
43457;SDS011;29046;54.184;18.680;2023-09-19T06:31:04;11.10;;;4.90;;
43457;SDS011;29046;54.184;18.680;2023-09-19T06:33:37;5.68;;;3.08;;
43457;SDS011;29046;54.184;18.680;2023-09-19T06:36:06;7.45;;;4.03;;
43457;SDS011;29046;54.184;18.680;2023-09-19T06:38:34;7.88;;;4.35;;
43457;SDS011;29046;54.184;18.680;2023-09-19T06:41:02;13.88;;;4.93;;
43457;SDS011;29046;54.184;18.680;2023-09-19T06:43:31;7.18;;;4.43;;
43457;SDS011;29046;54.184;18.680;2023-09-19T06:46:01;7.47;;;4.13;;
43457;SDS011;29046;54.184;18.680;2023-09-19T06:48:29;4.85;;;3.97;;
43457;SDS011;29046;54.184;18.680;2023-09-19T06:50:57;6.90;;;4.28;;
43457;SDS011;29046;54.184;18.680;2023-09-19T06:53:32;7.72;;;4.32;;
43457;SDS011;29046;54.184;18.680;2023-09-19T06:56:01;5.90;;;3.78;;
43457;SDS011;29046;54.184;18.680;2023-09-19T06:58:29;11.00;;;4.40;;
43457;SDS011;29046;54.184;18.680;2023-09-19T07:00:58;6.53;;;3.90;;
43457;SDS011;29046;54.184;18.680;2023-09-19T07:03:26;6.78;;;4.25;;
43457;SDS011;29046;54.184;18.680;2023-09-19T07:05:55;8.73;;;3.67;;
43457;SDS011;29046;54.184;18.680;2023-09-19T07:08:25;6.25;;;4.03;;
43457;SDS011;29046;54.184;18.680;2023-09-19T07:10:53;6.30;;;3.88;;
43457;SDS011;29046;54.184;18.680;2023-09-19T07:13:21;6.45;;;3.90;;
43457;SDS011;29046;54.184;18.680;2023-09-19T07:15:48;6.70;;;3.92;;
43457;SDS011;29046;54.184;18.680;2023-09-19T07:18:17;7.85;;;4.53;;
43457;SDS011;29046;54.184;18.680;2023-09-19T07:20:45;5.75;;;4.00;;
43457;SDS011;29046;54.184;18.680;2023-09-19T07:23:17;6.13;;;3.58;;
43457;SDS011;29046;54.184;18.680;2023-09-19T07:25:45;8.07;;;3.50;;
43457;SDS011;29046;54.184;18.680;2023-09-19T07:28:16;6.65;;;4.38;;
43457;SDS011;29046;54.184;18.680;2023-09-19T07:30:43;9.05;;;3.50;;
43457;SDS011;29046;54.184;18.680;2023-09-19T07:33:11;4.63;;;3.40;;
43457;SDS011;29046;54.184;18.680;2023-09-19T07:35:39;8.55;;;3.88;;
43457;SDS011;29046;54.184;18.680;2023-09-19T07:38:07;7.60;;;3.53;;
43457;SDS011;29046;54.184;18.680;2023-09-19T07:40:34;5.60;;;3.83;;
43457;SDS011;29046;54.184;18.680;2023-09-19T07:43:03;7.10;;;3.70;;
43457;SDS011;29046;54.184;18.680;2023-09-19T07:45:31;6.25;;;3.70;;
43457;SDS011;29046;54.184;18.680;2023-09-19T07:47:59;11.57;;;3.25;;
43457;SDS011;29046;54.184;18.680;2023-09-19T07:50:32;7.47;;;3.83;;
43457;SDS011;29046;54.184;18.680;2023-09-19T07:53:01;5.47;;;3.78;;
43457;SDS011;29046;54.184;18.680;2023-09-19T07:55:31;7.55;;;2.92;;
43457;SDS011;29046;54.184;18.680;2023-09-19T07:58:01;11.68;;;4.90;;
43457;SDS011;29046;54.184;18.680;2023-09-19T08:00:30;7.65;;;3.60;;
43457;SDS011;29046;54.184;18.680;2023-09-19T08:03:01;5.70;;;3.42;;
43457;SDS011;29046;54.184;18.680;2023-09-19T08:05:41;5.72;;;3.47;;
43457;SDS011;29046;54.184;18.680;2023-09-19T08:08:11;6.85;;;3.38;;
43457;SDS011;29046;54.184;18.680;2023-09-19T08:10:41;6.90;;;3.95;;
43457;SDS011;29046;54.184;18.680;2023-09-19T08:13:10;9.55;;;3.65;;
43457;SDS011;29046;54.184;18.680;2023-09-19T08:15:43;10.68;;;3.80;;
43457;SDS011;29046;54.184;18.680;2023-09-19T08:18:11;5.82;;;4.15;;
43457;SDS011;29046;54.184;18.680;2023-09-19T08:20:39;9.52;;;4.82;;
43457;SDS011;29046;54.184;18.680;2023-09-19T08:23:09;10.25;;;3.42;;
43457;SDS011;29046;54.184;18.680;2023-09-19T08:25:36;8.45;;;4.07;;
43457;SDS011;29046;54.184;18.680;2023-09-19T08:28:05;9.15;;;3.47;;
43457;SDS011;29046;54.184;18.680;2023-09-19T08:30:35;8.48;;;4.10;;
43457;SDS011;29046;54.184;18.680;2023-09-19T08:33:07;8.55;;;3.85;;
43457;SDS011;29046;54.184;18.680;2023-09-19T08:35:35;6.60;;;3.42;;
43457;SDS011;29046;54.184;18.680;2023-09-19T08:38:03;6.40;;;3.83;;
43457;SDS011;29046;54.184;18.680;2023-09-19T08:40:30;6.53;;;3.25;;
43457;SDS011;29046;54.184;18.680;2023-09-19T08:43:00;5.88;;;3.03;;
43457;SDS011;29046;54.184;18.680;2023-09-19T08:45:28;4.05;;;2.75;;
43457;SDS011;29046;54.184;18.680;2023-09-19T08:50:29;5.25;;;3.15;;
43457;SDS011;29046;54.184;18.680;2023-09-19T08:53:01;4.80;;;3.30;;
43457;SDS011;29046;54.184;18.680;2023-09-19T08:55:29;8.43;;;3.47;;
43457;SDS011;29046;54.184;18.680;2023-09-19T08:58:03;4.97;;;3.30;;
43457;SDS011;29046;54.184;18.680;2023-09-19T09:00:33;5.60;;;3.13;;
43457;SDS011;29046;54.184;18.680;2023-09-19T09:03:02;5.10;;;3.13;;
43457;SDS011;29046;54.184;18.680;2023-09-19T09:05:30;8.02;;;3.15;;
43457;SDS011;29046;54.184;18.680;2023-09-19T09:07:59;7.13;;;3.30;;
43457;SDS011;29046;54.184;18.680;2023-09-19T09:10:27;5.60;;;3.13;;
43457;SDS011;29046;54.184;18.680;2023-09-19T09:12:55;5.28;;;2.83;;
43457;SDS011;29046;54.184;18.680;2023-09-19T09:15:24;5.80;;;2.58;;
43457;SDS011;29046;54.184;18.680;2023-09-19T09:17:52;4.60;;;2.67;;
43457;SDS011;29046;54.184;18.680;2023-09-19T09:20:20;4.00;;;2.70;;
43457;SDS011;29046;54.184;18.680;2023-09-19T09:22:52;6.40;;;2.13;;
43457;SDS011;29046;54.184;18.680;2023-09-19T09:25:21;6.75;;;2.35;;
43457;SDS011;29046;54.184;18.680;2023-09-19T09:27:59;8.80;;;2.28;;
43457;SDS011;29046;54.184;18.680;2023-09-19T09:30:36;4.55;;;2.03;;
43457;SDS011;29046;54.184;18.680;2023-09-19T09:33:08;4.63;;;2.30;;
43457;SDS011;29046;54.184;18.680;2023-09-19T09:38:20;4.35;;;2.30;;
43457;SDS011;29046;54.184;18.680;2023-09-19T09:40:48;4.38;;;2.38;;
43457;SDS011;29046;54.184;18.680;2023-09-19T09:43:34;3.13;;;2.28;;
43457;SDS011;29046;54.184;18.680;2023-09-19T09:46:09;5.28;;;2.47;;
43457;SDS011;29046;54.184;18.680;2023-09-19T09:51:43;3.95;;;2.55;;
43457;SDS011;29046;54.184;18.680;2023-09-19T09:54:15;5.57;;;2.53;;
43457;SDS011;29046;54.184;18.680;2023-09-19T09:56:55;3.20;;;2.60;;
43457;SDS011;29046;54.184;18.680;2023-09-19T09:59:43;5.38;;;2.20;;
43457;SDS011;29046;54.184;18.680;2023-09-19T10:02:35;3.15;;;2.22;;
43457;SDS011;29046;54.184;18.680;2023-09-19T10:05:11;7.80;;;2.67;;
43457;SDS011;29046;54.184;18.680;2023-09-19T10:07:54;3.78;;;2.35;;
43457;SDS011;29046;54.184;18.680;2023-09-19T10:13:19;7.30;;;2.50;;
43457;SDS011;29046;54.184;18.680;2023-09-19T10:15:51;4.60;;;2.35;;
43457;SDS011;29046;54.184;18.680;2023-09-19T10:18:25;2.58;;;2.05;;
43457;SDS011;29046;54.184;18.680;2023-09-19T10:20:55;5.35;;;2.42;;
43457;SDS011;29046;54.184;18.680;2023-09-19T10:23:23;2.75;;;2.00;;
43457;SDS011;29046;54.184;18.680;2023-09-19T10:25:54;2.88;;;2.20;;
43457;SDS011;29046;54.184;18.680;2023-09-19T10:28:23;3.83;;;2.22;;
43457;SDS011;29046;54.184;18.680;2023-09-19T10:30:57;3.95;;;2.08;;
43457;SDS011;29046;54.184;18.680;2023-09-19T10:33:26;6.35;;;2.38;;
43457;SDS011;29046;54.184;18.680;2023-09-19T10:35:58;1.92;;;1.73;;
43457;SDS011;29046;54.184;18.680;2023-09-19T10:38:26;3.30;;;1.60;;
43457;SDS011;29046;54.184;18.680;2023-09-19T10:40:56;7.93;;;2.05;;
43457;SDS011;29046;54.184;18.680;2023-09-19T10:43:32;3.30;;;2.10;;
43457;SDS011;29046;54.184;18.680;2023-09-19T10:46:05;8.70;;;2.20;;
43457;SDS011;29046;54.184;18.680;2023-09-19T10:48:34;5.97;;;1.95;;
43457;SDS011;29046;54.184;18.680;2023-09-19T10:51:20;2.95;;;1.85;;
43457;SDS011;29046;54.184;18.680;2023-09-19T10:53:54;6.75;;;2.15;;
43457;SDS011;29046;54.184;18.680;2023-09-19T10:56:27;4.38;;;2.20;;
43457;SDS011;29046;54.184;18.680;2023-09-19T10:59:05;5.53;;;2.33;;
43457;SDS011;29046;54.184;18.680;2023-09-19T11:01:44;4.38;;;2.25;;
43457;SDS011;29046;54.184;18.680;2023-09-19T11:07:11;2.95;;;1.88;;
43457;SDS011;29046;54.184;18.680;2023-09-19T11:18:04;4.45;;;2.22;;
43457;SDS011;29046;54.184;18.680;2023-09-19T11:21:02;4.65;;;2.10;;
43457;SDS011;29046;54.184;18.680;2023-09-19T11:23:39;6.03;;;2.15;;
43457;SDS011;29046;54.184;18.680;2023-09-19T11:26:10;3.58;;;2.03;;
43457;SDS011;29046;54.184;18.680;2023-09-19T11:28:58;8.68;;;2.53;;
43457;SDS011;29046;54.184;18.680;2023-09-19T11:31:42;4.95;;;2.10;;
43457;SDS011;29046;54.184;18.680;2023-09-19T11:34:45;2.55;;;1.80;;
43457;SDS011;29046;54.184;18.680;2023-09-19T11:42:47;4.22;;;2.30;;
43457;SDS011;29046;54.184;18.680;2023-09-19T11:48:17;8.90;;;2.25;;
43457;SDS011;29046;54.184;18.680;2023-09-19T11:50:46;4.57;;;1.98;;
43457;SDS011;29046;54.184;18.680;2023-09-19T11:53:15;4.40;;;2.03;;
43457;SDS011;29046;54.184;18.680;2023-09-19T11:55:43;4.30;;;2.10;;
43457;SDS011;29046;54.184;18.680;2023-09-19T11:58:11;5.28;;;2.30;;
43457;SDS011;29046;54.184;18.680;2023-09-19T12:00:40;1.40;;;1.30;;
43457;SDS011;29046;54.184;18.680;2023-09-19T12:03:11;2.50;;;1.90;;
43457;SDS011;29046;54.184;18.680;2023-09-19T12:05:41;3.42;;;2.10;;
43457;SDS011;29046;54.184;18.680;2023-09-19T12:08:08;4.45;;;1.90;;
43457;SDS011;29046;54.184;18.680;2023-09-19T12:10:49;1.70;;;1.52;;
43457;SDS011;29046;54.184;18.680;2023-09-19T12:13:19;3.55;;;1.98;;
43457;SDS011;29046;54.184;18.680;2023-09-19T12:15:47;4.28;;;2.22;;
43457;SDS011;29046;54.184;18.680;2023-09-19T12:18:31;6.82;;;2.17;;
43457;SDS011;29046;54.184;18.680;2023-09-19T12:21:00;5.15;;;2.47;;
43457;SDS011;29046;54.184;18.680;2023-09-19T12:23:31;2.13;;;1.80;;
43457;SDS011;29046;54.184;18.680;2023-09-19T12:26:01;4.07;;;2.05;;
43457;SDS011;29046;54.184;18.680;2023-09-19T12:28:41;3.55;;;2.00;;
43457;SDS011;29046;54.184;18.680;2023-09-19T12:31:09;2.47;;;1.83;;
43457;SDS011;29046;54.184;18.680;2023-09-19T12:33:38;2.55;;;1.80;;
43457;SDS011;29046;54.184;18.680;2023-09-19T12:36:19;3.10;;;1.60;;
43457;SDS011;29046;54.184;18.680;2023-09-19T12:38:51;5.43;;;2.63;;
43457;SDS011;29046;54.184;18.680;2023-09-19T12:41:20;2.70;;;1.73;;
43457;SDS011;29046;54.184;18.680;2023-09-19T12:43:48;3.42;;;2.05;;
43457;SDS011;29046;54.184;18.680;2023-09-19T12:46:19;2.65;;;1.83;;
43457;SDS011;29046;54.184;18.680;2023-09-19T12:49:14;5.68;;;2.30;;
43457;SDS011;29046;54.184;18.680;2023-09-19T12:51:39;6.78;;;1.90;;
43457;SDS011;29046;54.184;18.680;2023-09-19T12:54:07;2.55;;;1.85;;
43457;SDS011;29046;54.184;18.680;2023-09-19T12:56:40;5.45;;;2.20;;
43457;SDS011;29046;54.184;18.680;2023-09-19T12:59:12;2.55;;;1.90;;
43457;SDS011;29046;54.184;18.680;2023-09-19T13:01:41;4.95;;;2.47;;
43457;SDS011;29046;54.184;18.680;2023-09-19T13:06:53;2.83;;;1.70;;
43457;SDS011;29046;54.184;18.680;2023-09-19T13:09:22;3.90;;;1.80;;
43457;SDS011;29046;54.184;18.680;2023-09-19T13:12:02;4.72;;;2.38;;
43457;SDS011;29046;54.184;18.680;2023-09-19T13:14:30;4.38;;;1.92;;
43457;SDS011;29046;54.184;18.680;2023-09-19T13:17:01;4.22;;;1.90;;
43457;SDS011;29046;54.184;18.680;2023-09-19T13:25:10;4.65;;;2.30;;
43457;SDS011;29046;54.184;18.680;2023-09-19T13:27:42;5.13;;;2.20;;
43457;SDS011;29046;54.184;18.680;2023-09-19T13:30:11;3.47;;;2.47;;
43457;SDS011;29046;54.184;18.680;2023-09-19T13:32:40;4.55;;;1.95;;
43457;SDS011;29046;54.184;18.680;2023-09-19T13:35:09;7.68;;;2.35;;
43457;SDS011;29046;54.184;18.680;2023-09-19T13:37:38;5.43;;;2.20;;
43457;SDS011;29046;54.184;18.680;2023-09-19T13:40:10;3.40;;;2.17;;
43457;SDS011;29046;54.184;18.680;2023-09-19T13:42:38;5.43;;;1.98;;
43457;SDS011;29046;54.184;18.680;2023-09-19T13:45:06;3.63;;;2.22;;
43457;SDS011;29046;54.184;18.680;2023-09-19T13:47:36;5.35;;;2.45;;
43457;SDS011;29046;54.184;18.680;2023-09-19T13:50:05;4.68;;;2.25;;
43457;SDS011;29046;54.184;18.680;2023-09-19T13:52:33;5.07;;;2.15;;
43457;SDS011;29046;54.184;18.680;2023-09-19T13:55:01;9.50;;;2.45;;
43457;SDS011;29046;54.184;18.680;2023-09-19T13:57:29;3.42;;;2.15;;
43457;SDS011;29046;54.184;18.680;2023-09-19T13:59:56;5.07;;;2.42;;
43457;SDS011;29046;54.184;18.680;2023-09-19T14:02:24;6.03;;;2.55;;
43457;SDS011;29046;54.184;18.680;2023-09-19T14:04:52;12.07;;;6.03;;
43457;SDS011;29046;54.184;18.680;2023-09-19T14:07:20;3.85;;;2.40;;
43457;SDS011;29046;54.184;18.680;2023-09-19T14:09:47;5.57;;;2.50;;
43457;SDS011;29046;54.184;18.680;2023-09-19T14:12:15;4.43;;;2.45;;
43457;SDS011;29046;54.184;18.680;2023-09-19T14:14:42;7.00;;;4.55;;
43457;SDS011;29046;54.184;18.680;2023-09-19T14:17:12;7.43;;;4.25;;
43457;SDS011;29046;54.184;18.680;2023-09-19T14:19:40;3.53;;;2.38;;
43457;SDS011;29046;54.184;18.680;2023-09-19T14:22:12;1.92;;;1.67;;
43457;SDS011;29046;54.184;18.680;2023-09-19T14:24:40;6.82;;;2.42;;
43457;SDS011;29046;54.184;18.680;2023-09-19T14:27:08;5.03;;;2.75;;
43457;SDS011;29046;54.184;18.680;2023-09-19T14:29:36;3.28;;;2.42;;
43457;SDS011;29046;54.184;18.680;2023-09-19T14:32:04;7.55;;;3.85;;
43457;SDS011;29046;54.184;18.680;2023-09-19T14:34:32;5.47;;;2.67;;
43457;SDS011;29046;54.184;18.680;2023-09-19T14:37:00;6.53;;;2.40;;
43457;SDS011;29046;54.184;18.680;2023-09-19T14:39:27;9.40;;;3.35;;
43457;SDS011;29046;54.184;18.680;2023-09-19T14:41:55;4.88;;;2.83;;
43457;SDS011;29046;54.184;18.680;2023-09-19T14:44:24;8.73;;;5.30;;
43457;SDS011;29046;54.184;18.680;2023-09-19T14:46:51;4.75;;;2.95;;
43457;SDS011;29046;54.184;18.680;2023-09-19T14:49:19;6.65;;;3.45;;
43457;SDS011;29046;54.184;18.680;2023-09-19T14:51:47;8.23;;;2.30;;
43457;SDS011;29046;54.184;18.680;2023-09-19T14:54:14;6.35;;;2.67;;
43457;SDS011;29046;54.184;18.680;2023-09-19T14:56:45;5.57;;;2.80;;
43457;SDS011;29046;54.184;18.680;2023-09-19T14:59:20;6.28;;;2.60;;
43457;SDS011;29046;54.184;18.680;2023-09-19T15:01:48;3.03;;;2.53;;
43457;SDS011;29046;54.184;18.680;2023-09-19T15:04:16;5.72;;;3.35;;
43457;SDS011;29046;54.184;18.680;2023-09-19T15:06:45;7.88;;;3.38;;
43457;SDS011;29046;54.184;18.680;2023-09-19T15:09:12;5.13;;;2.67;;
43457;SDS011;29046;54.184;18.680;2023-09-19T15:11:40;7.68;;;3.60;;
43457;SDS011;29046;54.184;18.680;2023-09-19T15:14:08;3.63;;;2.30;;
43457;SDS011;29046;54.184;18.680;2023-09-19T15:16:36;5.53;;;2.78;;
43457;SDS011;29046;54.184;18.680;2023-09-19T15:19:04;3.20;;;2.17;;
43457;SDS011;29046;54.184;18.680;2023-09-19T15:21:34;7.18;;;2.83;;
43457;SDS011;29046;54.184;18.680;2023-09-19T15:24:01;4.78;;;2.75;;
43457;SDS011;29046;54.184;18.680;2023-09-19T15:26:30;3.97;;;2.70;;
43457;SDS011;29046;54.184;18.680;2023-09-19T15:28:57;5.32;;;3.03;;
43457;SDS011;29046;54.184;18.680;2023-09-19T15:31:25;10.57;;;3.92;;
43457;SDS011;29046;54.184;18.680;2023-09-19T15:33:53;5.93;;;2.95;;
43457;SDS011;29046;54.184;18.680;2023-09-19T15:36:22;10.23;;;3.22;;